Wetterdaten: Woche 02.01.17 - 08.01.17 (KW1)
Datum Zeit Temp. A. Feuchte A. Luftdruck Regen Wind Richtung Sonnenschein ET UV Solar Taupunkt Windchill Windben Empfang
02.01.2017 00:00 -6,2 C 95 % 1020,9 hPa 0,0 l/m 0,0 km/h (0 Bft) N 0,00 h 0,000 mm 0,0 UV-I 0 W/m -6,9 C -6,2 C 0,0 km/h (0 Bft) 98,01 %
02.01.2017 01:00 -6,3 C 95 % 1020,8 hPa 0,0 l/m 0,0 km/h (0 Bft) N 0,00 h 0,000 mm 0,0 UV-I 0 W/m -7,0 C -6,3 C 0,0 km/h (0 Bft) 99,24 %
02.01.2017 02:00 -6,5 C 95 % 1020,9 hPa 0,0 l/m 0,0 km/h (0 Bft) N 0,00 h 0,000 mm 0,0 UV-I 0 W/m -7,2 C -6,5 C 0,0 km/h (0 Bft) 98,05 %
02.01.2017 03:00 -6,5 C 95 % 1020,8 hPa 0,0 l/m 0,0 km/h (0 Bft) N 0,00 h 0,000 mm 0,0 UV-I 0 W/m -7,2 C -6,5 C 0,0 km/h (0 Bft) 99,45 %
02.01.2017 04:00 -6,7 C 95 % 1020,5 hPa 0,0 l/m 0,0 km/h (0 Bft) N 0,00 h 0,000 mm 0,0 UV-I 0 W/m -7,3 C -6,7 C 0,0 km/h (0 Bft) 97,65 %
02.01.2017 05:00 -7,2 C 95 % 1020,4 hPa 0,0 l/m 0,0 km/h (0 Bft) N 0,00 h 0,000 mm 0,0 UV-I 0 W/m -7,9 C -7,2 C 0,0 km/h (0 Bft) 99,45 %
02.01.2017 06:00 -7,6 C 94 % 1020,6 hPa 0,0 l/m 0,0 km/h (0 Bft) N 0,00 h 0,000 mm 0,0 UV-I 0 W/m -8,3 C -7,6 C 0,0 km/h (0 Bft) 98,27 %
02.01.2017 07:00 -7,7 C 94 % 1020,7 hPa 0,0 l/m 0,0 km/h (0 Bft) N 0,00 h 0,000 mm 0,0 UV-I 6 W/m -8,4 C -7,7 C 0,0 km/h (0 Bft) 99,41 %
02.01.2017 08:00 -7,6 C 94 % 1020,9 hPa 0,0 l/m 0,0 km/h (0 Bft) N 0,67 h 0,000 mm 0,0 UV-I 41 W/m -8,4 C -7,6 C 0,0 km/h (0 Bft) 98,00 %
02.01.2017 09:00 -6,1 C 96 % 1021,1 hPa 0,0 l/m 0,0 km/h (0 Bft) N 0,07 h 0,000 mm 0,0 UV-I 48 W/m -6,7 C -6,1 C 0,0 km/h (0 Bft) 99,34 %
02.01.2017 10:00 -4,7 C 96 % 1021,0 hPa 0,0 l/m 0,0 km/h (0 Bft) N 0,00 h 0,000 mm 0,0 UV-I 75 W/m -5,2 C -4,7 C 0,0 km/h (0 Bft) 98,34 %
02.01.2017 11:00 -3,8 C 97 % 1020,5 hPa 0,0 l/m 0,0 km/h (0 Bft) N 0,00 h 0,025 mm 0,0 UV-I 89 W/m -4,2 C -3,8 C 0,0 km/h (0 Bft) 99,44 %
02.01.2017 12:00 -3,2 C 97 % 1020,3 hPa 0,0 l/m 5,8 km/h (2 Bft) W-SW 0,00 h 0,026 mm 0,0 UV-I 84 W/m -3,6 C -4,7 C 10,8 km/h (2 Bft) 98,13 %
02.01.2017 13:00 -2,6 C 97 % 1020,3 hPa 0,0 l/m 12,7 km/h (3 Bft) W 0,13 h 0,025 mm 0,0 UV-I 112 W/m -3,0 C -8,4 C 21,4 km/h (4 Bft) 99,23 %
02.01.2017 14:00 -2,1 C 97 % 1020,6 hPa 0,0 l/m 15,6 km/h (3 Bft) W-SW 0,10 h 0,026 mm 0,0 UV-I 82 W/m -2,5 C -9,8 C 24,1 km/h (4 Bft) 97,22 %
02.01.2017 15:00 -1,3 C 96 % 1020,7 hPa 0,0 l/m 10,0 km/h (2 Bft) W-SW 0,00 h 0,025 mm 0,0 UV-I 16 W/m -1,8 C -4,7 C 16,3 km/h (3 Bft) 98,97 %
02.01.2017 16:00 -0,9 C 96 % 1020,7 hPa 0,0 l/m 11,7 km/h (2 Bft) W-SW 0,00 h 0,000 mm 0,0 UV-I 6 W/m -1,5 C -5,8 C 17,6 km/h (3 Bft) 97,65 %
02.01.2017 17:00 -0,8 C 96 % 1021,1 hPa 0,0 l/m 11,9 km/h (2 Bft) W-SW 0,00 h 0,000 mm 0,0 UV-I 0 W/m -1,4 C -5,8 C 18,2 km/h (3 Bft) 99,46 %
02.01.2017 18:00 -0,6 C 97 % 1021,4 hPa 0,0 l/m 11,3 km/h (2 Bft) W-SW 0,00 h 0,000 mm 0,0 UV-I 0 W/m -1,1 C -5,1 C 16,5 km/h (3 Bft) 97,70 %
02.01.2017 19:00 -0,6 C 97 % 1021,9 hPa 0,0 l/m 10,7 km/h (2 Bft) SW 0,00 h 0,000 mm 0,0 UV-I 0 W/m -1,0 C -4,6 C 15,8 km/h (3 Bft) 99,54 %
02.01.2017 20:00 -0,5 C 97 % 1022,3 hPa 0,0 l/m 10,5 km/h (2 Bft) SW 0,00 h 0,000 mm 0,0 UV-I 0 W/m -1,0 C -4,4 C 16,2 km/h (3 Bft) 98,07 %
02.01.2017 21:00 -0,5 C 97 % 1022,9 hPa 0,0 l/m 8,3 km/h (2 Bft) SW 0,00 h 0,000 mm 0,0 UV-I 0 W/m -0,9 C -2,5 C 13,6 km/h (3 Bft) 99,28 %
02.01.2017 22:00 -0,6 C 98 % 1023,2 hPa 0,0 l/m 8,3 km/h (2 Bft) W-SW 0,00 h 0,000 mm 0,0 UV-I 0 W/m -0,9 C -2,5 C 12,7 km/h (3 Bft) 98,08 %
02.01.2017 23:00 -0,6 C 98 % 1023,5 hPa 0,0 l/m 9,0 km/h (2 Bft) W-SW 0,00 h 0,000 mm 0,0 UV-I 0 W/m -1,0 C -3,2 C 13,8 km/h (3 Bft) 98,68 %
03.01.2017 00:00 -0,9 C 97 % 1023,7 hPa 0,0 l/m 6,7 km/h (2 Bft) W-SW 0,00 h 0,000 mm 0,0 UV-I 0 W/m -1,3 C -1,5 C 10,8 km/h (2 Bft) 98,85 %
03.01.2017 01:00 -1,4 C 97 % 1024,1 hPa 0,0 l/m 7,9 km/h (2 Bft) W-SW 0,00 h 0,000 mm 0,0 UV-I 0 W/m -1,8 C -3,0 C 12,5 km/h (3 Bft) 98,82 %
03.01.2017 02:00 -1,0 C 97 % 1024,5 hPa 0,0 l/m 9,0 km/h (2 Bft) W-SW 0,00 h 0,000 mm 0,0 UV-I 0 W/m -1,4 C -3,6 C 13,8 km/h (3 Bft) 99,07 %
03.01.2017 03:00 -0,8 C 97 % 1024,8 hPa 0,0 l/m 10,2 km/h (2 Bft) W-SW 0,00 h 0,000 mm 0,0 UV-I 0 W/m -1,2 C -4,4 C 15,2 km/h (3 Bft) 98,29 %
03.01.2017 04:00 -1,0 C 96 % 1025,0 hPa 0,0 l/m 9,4 km/h (2 Bft) W 0,00 h 0,000 mm 0,0 UV-I 0 W/m -1,5 C -3,9 C 14,8 km/h (3 Bft) 99,76 %
03.01.2017 05:00 -1,5 C 95 % 1025,1 hPa 0,0 l/m 8,4 km/h (2 Bft) W 0,00 h 0,000 mm 0,0 UV-I 0 W/m -2,2 C -3,6 C 13,4 km/h (3 Bft) 98,17 %
03.01.2017 06:00 -1,7 C 95 % 1025,6 hPa 0,0 l/m 10,1 km/h (2 Bft) W-SW 0,00 h 0,000 mm 0,0 UV-I 0 W/m -2,4 C -5,3 C 15,1 km/h (3 Bft) 99,11 %
03.01.2017 07:00 -1,3 C 94 % 1025,8 hPa 0,0 l/m 10,7 km/h (2 Bft) W-SW 0,00 h 0,000 mm 0,0 UV-I 5 W/m -2,2 C -5,4 C 16,1 km/h (3 Bft) 97,86 %
03.01.2017 08:00 -1,3 C 93 % 1026,1 hPa 0,0 l/m 12,2 km/h (2 Bft) W 0,00 h 0,000 mm 0,0 UV-I 21 W/m -2,3 C -6,6 C 18,6 km/h (3 Bft) 99,12 %
03.01.2017 09:00 -1,0 C 91 % 1026,5 hPa 0,0 l/m 13,7 km/h (3 Bft) W 0,00 h 0,025 mm 0,0 UV-I 73 W/m -2,2 C -7,3 C 20,6 km/h (4 Bft) 99,22 %
03.01.2017 10:00 -0,6 C 87 % 1026,8 hPa 0,0 l/m 12,2 km/h (2 Bft) W-SW 0,27 h 0,026 mm 0,0 UV-I 117 W/m -2,5 C -5,8 C 18,4 km/h (3 Bft) 97,99 %
03.01.2017 11:00 -0,6 C 87 % 1026,8 hPa 0,0 l/m 12,6 km/h (3 Bft) W-SW 0,00 h 0,051 mm 0,4 UV-I 114 W/m -2,4 C -6,0 C 20,5 km/h (4 Bft) 98,81 %
03.01.2017 12:00 -0,0 C 84 % 1026,2 hPa 0,0 l/m 13,0 km/h (3 Bft) W-SW 0,13 h 0,050 mm 0,5 UV-I 145 W/m -2,4 C -5,7 C 19,6 km/h (3 Bft) 97,70 %
03.01.2017 13:00 0,3 C 83 % 1025,7 hPa 0,0 l/m 11,5 km/h (2 Bft) W 0,83 h 0,051 mm 0,4 UV-I 226 W/m -2,3 C -4,1 C 18,2 km/h (3 Bft) 98,68 %
03.01.2017 14:00 -0,0 C 81 % 1025,1 hPa 0,0 l/m 15,0 km/h (3 Bft) W 0,05 h 0,076 mm 0,0 UV-I 87 W/m -2,9 C -6,8 C 22,5 km/h (4 Bft) 98,36 %
03.01.2017 15:00 -0,3 C 81 % 1024,8 hPa 0,0 l/m 13,6 km/h (3 Bft) W-SW 0,57 h 0,051 mm 0,0 UV-I 67 W/m -3,1 C -6,4 C 20,9 km/h (4 Bft) 99,39 %
03.01.2017 16:00 -1,0 C 83 % 1024,5 hPa 0,0 l/m 12,7 km/h (3 Bft) W-SW 0,20 h 0,051 mm 0,0 UV-I 11 W/m -3,6 C -6,6 C 17,8 km/h (3 Bft) 97,95 %
03.01.2017 17:00 -1,6 C 86 % 1024,2 hPa 0,0 l/m 11,5 km/h (2 Bft) SW 0,00 h 0,025 mm 0,0 UV-I 0 W/m -3,7 C -6,4 C 17,1 km/h (3 Bft) 99,51 %
03.01.2017 18:00 -1,9 C 88 % 1023,8 hPa 0,0 l/m 15,2 km/h (3 Bft) SW 0,00 h 0,000 mm 0,0 UV-I 0 W/m -3,6 C -9,3 C 22,3 km/h (4 Bft) 97,49 %
03.01.2017 19:00 -1,7 C 88 % 1023,5 hPa 0,0 l/m 13,8 km/h (3 Bft) SW 0,00 h 0,026 mm 0,0 UV-I 0 W/m -3,5 C -8,2 C 20,3 km/h (4 Bft) 99,06 %
03.01.2017 20:00 -1,7 C 88 % 1022,9 hPa 0,0 l/m 14,8 km/h (3 Bft) SW 0,00 h 0,000 mm 0,0 UV-I 0 W/m -3,5 C -8,9 C 21,9 km/h (4 Bft) 98,38 %
03.01.2017 21:00 -1,5 C 88 % 1022,1 hPa 0,0 l/m 15,1 km/h (3 Bft) W-SW 0,00 h 0,025 mm 0,0 UV-I 0 W/m -3,2 C -8,8 C 22,2 km/h (4 Bft) 98,46 %
03.01.2017 22:00 -1,0 C 85 % 1021,0 hPa 0,0 l/m 19,6 km/h (3 Bft) W-SW 0,00 h 0,026 mm 0,0 UV-I 0 W/m -3,2 C -10,6 C 29,0 km/h (5 Bft) 99,26 %
03.01.2017 23:00 -0,6 C 81 % 1020,4 hPa 0,0 l/m 18,3 km/h (3 Bft) W-SW 0,00 h 0,025 mm 0,0 UV-I 0 W/m -3,4 C -9,5 C 26,9 km/h (4 Bft) 97,75 %
04.01.2017 00:00 -0,5 C 80 % 1019,3 hPa 0,0 l/m 16,5 km/h (3 Bft) SW 0,00 h 0,000 mm 0,0 UV-I 0 W/m -3,6 C -8,5 C 24,7 km/h (4 Bft) 98,72 %
04.01.2017 01:00 -0,4 C 79 % 1018,3 hPa 0,0 l/m 16,7 km/h (3 Bft) W-SW 0,00 h 0,025 mm 0,0 UV-I 0 W/m -3,6 C -8,2 C 25,0 km/h (4 Bft) 97,66 %
04.01.2017 02:00 0,8 C 71 % 1017,7 hPa 0,0 l/m 19,6 km/h (3 Bft) W-SW 0,00 h 0,026 mm 0,0 UV-I 0 W/m -3,8 C -8,2 C 32,0 km/h (5 Bft) 99,06 %
04.01.2017 03:00 0,4 C 82 % 1017,4 hPa 0,2 l/m 23,9 km/h (4 Bft) W 0,00 h 0,051 mm 0,0 UV-I 0 W/m -2,4 C -10,5 C 36,4 km/h (5 Bft) 97,51 %
04.01.2017 04:00 -0,2 C 88 % 1015,9 hPa 0,0 l/m 19,2 km/h (3 Bft) W-SW 0,00 h 0,025 mm 0,0 UV-I 0 W/m -1,9 C -9,4 C 29,0 km/h (5 Bft) 99,03 %
04.01.2017 05:00 0,7 C 79 % 1014,5 hPa 0,0 l/m 22,8 km/h (4 Bft) W-SW 0,00 h 0,025 mm 0,0 UV-I 0 W/m -2,6 C -9,9 C 33,3 km/h (5 Bft) 97,84 %
04.01.2017 06:00 1,4 C 71 % 1014,0 hPa 0,0 l/m 23,9 km/h (4 Bft) W-SW 0,00 h 0,026 mm 0,0 UV-I 0 W/m -3,2 C -9,4 C 36,3 km/h (5 Bft) 98,48 %
04.01.2017 07:00 0,6 C 84 % 1013,3 hPa 0,0 l/m 24,1 km/h (4 Bft) W-SW 0,00 h 0,051 mm 0,0 UV-I 4 W/m -1,8 C -10,4 C 36,7 km/h (5 Bft) 98,65 %
04.01.2017 08:00 -0,2 C 94 % 1012,8 hPa 0,0 l/m 22,7 km/h (4 Bft) W-SW 0,00 h 0,025 mm 0,0 UV-I 25 W/m -1,0 C -11,0 C 35,3 km/h (5 Bft) 98,62 %
04.01.2017 09:00 0,4 C 95 % 1012,2 hPa 0,0 l/m 21,6 km/h (4 Bft) W-SW 0,00 h 0,025 mm 0,0 UV-I 46 W/m -0,3 C -9,7 C 32,1 km/h (5 Bft) 98,10 %
04.01.2017 10:00 1,1 C 94 % 1011,8 hPa 0,0 l/m 21,8 km/h (4 Bft) W-SW 0,00 h 0,026 mm 0,0 UV-I 62 W/m 0,2 C -9,0 C 33,2 km/h (5 Bft) 98,07 %
04.01.2017 11:00 1,0 C 94 % 1010,7 hPa 0,0 l/m 21,6 km/h (4 Bft) W-SW 0,00 h 0,025 mm 0,0 UV-I 58 W/m 0,1 C -8,9 C 32,5 km/h (5 Bft) 99,01 %
04.01.2017 12:00 1,0 C 94 % 1010,0 hPa 0,0 l/m 19,7 km/h (3 Bft) W-SW 0,00 h 0,026 mm 0,0 UV-I 44 W/m 0,2 C -8,1 C 29,4 km/h (5 Bft) 97,70 %
04.01.2017 13:00 0,8 C 96 % 1009,5 hPa 0,0 l/m 20,1 km/h (4 Bft) W-SW 0,00 h 0,025 mm 0,0 UV-I 32 W/m 0,2 C -8,5 C 29,9 km/h (5 Bft) 98,80 %
04.01.2017 14:00 1,3 C 94 % 1009,4 hPa 0,0 l/m 23,4 km/h (4 Bft) W-SW 0,00 h 0,025 mm 0,0 UV-I 30 W/m 0,5 C -9,2 C 35,9 km/h (5 Bft) 97,64 %
04.01.2017 15:00 1,1 C 93 % 1009,6 hPa 0,0 l/m 18,7 km/h (3 Bft) W-SW 0,00 h 0,026 mm 0,0 UV-I 17 W/m 0,2 C -7,4 C 28,2 km/h (4 Bft) 99,14 %
04.01.2017 16:00 0,6 C 95 % 1009,3 hPa 0,0 l/m 16,2 km/h (3 Bft) W-SW 0,00 h 0,025 mm 0,0 UV-I 5 W/m -0,0 C -6,8 C 24,7 km/h (4 Bft) 97,81 %
04.01.2017 17:00 1,0 C 93 % 1009,7 hPa 0,0 l/m 22,5 km/h (4 Bft) W-SW 0,00 h 0,000 mm 0,0 UV-I 0 W/m -0,1 C -9,4 C 35,7 km/h (5 Bft) 99,09 %
04.01.2017 18:00 1,0 C 92 % 1009,9 hPa 0,0 l/m 23,5 km/h (4 Bft) W-SW 0,00 h 0,026 mm 0,0 UV-I 0 W/m -0,2 C -9,8 C 36,3 km/h (5 Bft) 97,83 %
04.01.2017 19:00 1,3 C 87 % 1010,1 hPa 0,0 l/m 20,5 km/h (4 Bft) W-SW 0,00 h 0,025 mm 0,0 UV-I 0 W/m -0,5 C -8,1 C 30,6 km/h (5 Bft) 99,08 %
04.01.2017 20:00 1,2 C 88 % 1010,3 hPa 0,0 l/m 20,4 km/h (4 Bft) W-SW 0,00 h 0,025 mm 0,0 UV-I 0 W/m -0,6 C -8,2 C 30,3 km/h (5 Bft) 98,17 %
04.01.2017 21:00 1,0 C 89 % 1010,7 hPa 0,0 l/m 18,7 km/h (3 Bft) SW 0,00 h 0,026 mm 0,0 UV-I 0 W/m -0,6 C -7,7 C 27,6 km/h (4 Bft) 99,06 %
04.01.2017 22:00 1,0 C 88 % 1010,7 hPa 0,0 l/m 21,1 km/h (4 Bft) W-SW 0,00 h 0,025 mm 0,0 UV-I 0 W/m -0,7 C -8,8 C 31,7 km/h (5 Bft) 98,89 %
04.01.2017 23:00 1,1 C 87 % 1010,8 hPa 0,0 l/m 18,9 km/h (3 Bft) W-SW 0,00 h 0,026 mm 0,0 UV-I 0 W/m -0,9 C -7,6 C 30,0 km/h (5 Bft) 97,96 %
05.01.2017 00:00 1,1 C 86 % 1011,3 hPa 0,0 l/m 16,3 km/h (3 Bft) W-SW 0,00 h 0,000 mm 0,0 UV-I 0 W/m -1,0 C -6,3 C 24,1 km/h (4 Bft) 99,26 %
05.01.2017 01:00 0,8 C 87 % 1011,3 hPa 0,0 l/m 14,9 km/h (3 Bft) W 0,00 h 0,025 mm 0,0 UV-I 0 W/m -1,2 C -5,9 C 25,3 km/h (4 Bft) 97,55 %
05.01.2017 02:00 0,3 C 85 % 1011,7 hPa 0,0 l/m 17,5 km/h (3 Bft) W-SW 0,00 h 0,026 mm 0,0 UV-I 0 W/m -1,8 C -7,9 C 27,0 km/h (4 Bft) 99,36 %
05.01.2017 03:00 0,4 C 86 % 1011,7 hPa 0,0 l/m 16,0 km/h (3 Bft) W-SW 0,00 h 0,025 mm 0,0 UV-I 0 W/m -1,8 C -7,0 C 24,1 km/h (4 Bft) 97,89 %
05.01.2017 04:00 -0,4 C 92 % 1011,5 hPa 0,0 l/m 20,5 km/h (4 Bft) W-SW 0,00 h 0,026 mm 0,0 UV-I 0 W/m -1,5 C -10,2 C 32,0 km/h (5 Bft) 99,19 %
05.01.2017 05:00 -1,4 C 91 % 1013,3 hPa 0,0 l/m 13,4 km/h (3 Bft) W 0,00 h 0,000 mm 0,0 UV-I 0 W/m -2,7 C -7,4 C 23,0 km/h (4 Bft) 97,70 %
05.01.2017 06:00 -1,8 C 87 % 1015,2 hPa 0,0 l/m 16,1 km/h (3 Bft) W-SW 0,00 h 0,000 mm 0,0 UV-I 0 W/m -3,7 C -9,8 C 25,4 km/h (4 Bft) 98,48 %
05.01.2017 07:00 -2,5 C 86 % 1016,7 hPa 0,0 l/m 18,2 km/h (3 Bft) W 0,00 h 0,025 mm 0,0 UV-I 5 W/m -4,5 C -11,8 C 29,7 km/h (5 Bft) 97,57 %
05.01.2017 08:00 -3,7 C 93 % 1018,1 hPa 0,0 l/m 18,3 km/h (3 Bft) W 0,00 h 0,025 mm 0,0 UV-I 23 W/m -4,6 C -13,4 C 27,3 km/h (4 Bft) 99,38 %
05.01.2017 09:00 -3,6 C 90 % 1019,2 hPa 0,0 l/m 15,7 km/h (3 Bft) W-SW 0,00 h 0,026 mm 0,0 UV-I 50 W/m -5,0 C -11,7 C 23,2 km/h (4 Bft) 98,02 %
05.01.2017 10:00 -2,8 C 85 % 1019,9 hPa 0,0 l/m 14,6 km/h (3 Bft) W-SW 0,57 h 0,025 mm 0,0 UV-I 156 W/m -5,0 C -10,1 C 22,5 km/h (4 Bft) 98,88 %
05.01.2017 11:00 -2,6 C 83 % 1020,6 hPa 0,0 l/m 10,9 km/h (2 Bft) W 0,07 h 0,051 mm 0,4 UV-I 120 W/m -5,1 C -7,0 C 18,3 km/h (3 Bft) 97,77 %
05.01.2017 12:00 -2,2 C 81 % 1021,1 hPa 0,0 l/m 11,1 km/h (2 Bft) W 0,63 h 0,051 mm 0,5 UV-I 198 W/m -5,0 C -6,7 C 18,4 km/h (3 Bft) 99,54 %
05.01.2017 13:00 -2,2 C 83 % 1021,6 hPa 0,0 l/m 6,9 km/h (2 Bft) W 0,10 h 0,076 mm 0,0 UV-I 150 W/m -4,7 C -3,4 C 13,1 km/h (3 Bft) 97,71 %
05.01.2017 14:00 -2,2 C 82 % 1022,9 hPa 0,0 l/m 5,0 km/h (1 Bft) W 0,00 h 0,051 mm 0,0 UV-I 97 W/m -4,8 C -2,4 C 10,2 km/h (2 Bft) 99,54 %
05.01.2017 15:00 -2,5 C 75 % 1024,2 hPa 0,0 l/m 5,2 km/h (1 Bft) NW 0,20 h 0,025 mm 0,0 UV-I 52 W/m -6,3 C -2,9 C 11,5 km/h (2 Bft) 97,46 %
05.01.2017 16:00 -2,9 C 73 % 1025,4 hPa 0,0 l/m 3,0 km/h (1 Bft) NW 0,07 h 0,026 mm 0,0 UV-I 10 W/m -7,0 C -2,9 C 6,3 km/h (2 Bft) 99,30 %
05.01.2017 17:00 -3,6 C 75 % 1026,4 hPa 0,0 l/m 1,4 km/h (1 Bft) NW 0,00 h 0,000 mm 0,0 UV-I 0 W/m -7,4 C -3,6 C 3,4 km/h (1 Bft) 97,62 %
05.01.2017 18:00 -3,7 C 76 % 1027,5 hPa 0,0 l/m 1,9 km/h (1 Bft) NW 0,00 h 0,000 mm 0,0 UV-I 0 W/m -7,3 C -3,7 C 4,5 km/h (1 Bft) 98,98 %
05.01.2017 19:00 -3,9 C 77 % 1028,4 hPa 0,0 l/m 5,9 km/h (2 Bft) NW 0,00 h 0,000 mm 0,0 UV-I 0 W/m -7,4 C -4,6 C 12,7 km/h (3 Bft) 97,96 %
05.01.2017 20:00 -4,4 C 74 % 1029,4 hPa 0,0 l/m 3,6 km/h (1 Bft) NW 0,00 h 0,000 mm 0,0 UV-I 0 W/m -8,3 C -4,4 C 8,2 km/h (2 Bft) 98,89 %
05.01.2017 21:00 -5,3 C 77 % 1030,4 hPa 0,0 l/m 2,4 km/h (1 Bft) NW 0,00 h 0,000 mm 0,0 UV-I 0 W/m -8,7 C -5,3 C 5,2 km/h (1 Bft) 97,95 %
05.01.2017 22:00 -5,9 C 79 % 1031,1 hPa 0,0 l/m 2,3 km/h (1 Bft) NW 0,00 h 0,000 mm 0,0 UV-I 0 W/m -9,0 C -5,9 C 4,7 km/h (1 Bft) 99,22 %
05.01.2017 23:00 -5,8 C 78 % 1031,8 hPa 0,0 l/m 1,9 km/h (1 Bft) NW 0,00 h 0,000 mm 0,0 UV-I 0 W/m -8,9 C -5,8 C 5,1 km/h (1 Bft) 98,10 %
06.01.2017 00:00 -6,8 C 81 % 1032,4 hPa 0,0 l/m 2,9 km/h (1 Bft) NW 0,00 h 0,000 mm 0,0 UV-I 0 W/m -9,5 C -6,8 C 6,4 km/h (2 Bft) 99,10 %
06.01.2017 01:00 -7,8 C 82 % 1033,2 hPa 0,0 l/m 0,8 km/h (0 Bft) W-NW 0,00 h 0,000 mm 0,0 UV-I 0 W/m -10,3 C -7,8 C 2,7 km/h (1 Bft) 98,60 %
06.01.2017 02:00 -7,8 C 85 % 1034,2 hPa 0,0 l/m 1,6 km/h (1 Bft) NW 0,00 h 0,000 mm 0,0 UV-I 0 W/m -9,9 C -7,8 C 3,7 km/h (1 Bft) 99,12 %
06.01.2017 03:00 -8,2 C 84 % 1035,0 hPa 0,0 l/m 2,0 km/h (1 Bft) NW 0,00 h 0,000 mm 0,0 UV-I 0 W/m -10,4 C -8,2 C 4,9 km/h (1 Bft) 99,14 %
06.01.2017 04:00 -9,1 C 84 % 1035,4 hPa 0,0 l/m 4,3 km/h (1 Bft) W 0,00 h 0,000 mm 0,0 UV-I 0 W/m -11,4 C -9,2 C 8,8 km/h (2 Bft) 98,06 %
06.01.2017 05:00 -9,8 C 85 % 1036,1 hPa 0,0 l/m 5,9 km/h (2 Bft) W 0,00 h 0,000 mm 0,0 UV-I 0 W/m -11,8 C -10,2 C 9,9 km/h (2 Bft) 99,25 %
06.01.2017 06:00 -10,1 C 84 % 1036,7 hPa 0,0 l/m 8,4 km/h (2 Bft) W 0,00 h 0,000 mm 0,0 UV-I 0 W/m -12,2 C -12,7 C 12,7 km/h (3 Bft) 98,15 %
06.01.2017 07:00 -10,4 C 85 % 1037,8 hPa 0,0 l/m 7,6 km/h (2 Bft) SW 0,00 h 0,000 mm 0,0 UV-I 6 W/m -12,5 C -12,1 C 11,4 km/h (2 Bft) 99,85 %
06.01.2017 08:00 -10,5 C 86 % 1038,4 hPa 0,0 l/m 10,4 km/h (2 Bft) W 0,73 h 0,000 mm 0,0 UV-I 73 W/m -12,4 C -15,4 C 15,7 km/h (3 Bft) 98,11 %
06.01.2017 09:00 -9,4 C 83 % 1039,0 hPa 0,0 l/m 10,2 km/h (2 Bft) W-SW 0,57 h 0,025 mm 0,0 UV-I 116 W/m -11,8 C -13,9 C 16,5 km/h (3 Bft) 99,05 %
06.01.2017 10:00 -8,4 C 79 % 1039,3 hPa 0,0 l/m 11,5 km/h (2 Bft) W 0,83 h 0,026 mm 0,5 UV-I 261 W/m -11,3 C -14,1 C 17,4 km/h (3 Bft) 98,24 %
06.01.2017 11:00 -7,4 C 76 % 1039,0 hPa 0,0 l/m 10,1 km/h (2 Bft) W 1,00 h 0,076 mm 0,7 UV-I 347 W/m -10,9 C -11,7 C 16,8 km/h (3 Bft) 98,78 %
06.01.2017 12:00 -6,9 C 74 % 1038,2 hPa 0,0 l/m 8,4 km/h (2 Bft) W-NW 1,00 h 0,102 mm 0,7 UV-I 354 W/m -10,7 C -9,5 C 17,8 km/h (3 Bft) 98,66 %
06.01.2017 13:00 -7,0 C 73 % 1038,0 hPa 0,0 l/m 12,4 km/h (3 Bft) W 0,73 h 0,101 mm 0,6 UV-I 243 W/m -11,0 C -13,3 C 20,8 km/h (4 Bft) 98,61 %
06.01.2017 14:00 -6,9 C 72 % 1038,4 hPa 0,0 l/m 10,1 km/h (2 Bft) W 0,70 h 0,076 mm 0,0 UV-I 166 W/m -11,1 C -11,0 C 17,4 km/h (3 Bft) 98,78 %
06.01.2017 15:00 -7,2 C 74 % 1038,6 hPa 0,0 l/m 11,8 km/h (2 Bft) W-SW 0,77 h 0,051 mm 0,0 UV-I 88 W/m -11,1 C -13,0 C 18,4 km/h (3 Bft) 98,81 %
06.01.2017 16:00 -7,8 C 77 % 1039,0 hPa 0,0 l/m 11,3 km/h (2 Bft) W-SW 0,23 h 0,026 mm 0,0 UV-I 13 W/m -11,2 C -13,3 C 16,7 km/h (3 Bft) 99,27 %
06.01.2017 17:00 -7,9 C 78 % 1039,4 hPa 0,0 l/m 12,5 km/h (3 Bft) W-SW 0,00 h 0,025 mm 0,0 UV-I 0 W/m -11,1 C -14,5 C 17,5 km/h (3 Bft) 98,04 %
06.01.2017 18:00 -8,0 C 79 % 1039,6 hPa 0,0 l/m 12,7 km/h (3 Bft) W-SW 0,00 h 0,025 mm 0,0 UV-I 0 W/m -11,0 C -14,7 C 18,9 km/h (3 Bft) 99,10 %
06.01.2017 19:00 -8,3 C 80 % 1039,7 hPa 0,0 l/m 11,0 km/h (2 Bft) W-SW 0,00 h 0,026 mm 0,0 UV-I 0 W/m -11,1 C -13,6 C 16,8 km/h (3 Bft) 97,87 %
06.01.2017 20:00 -8,6 C 80 % 1039,6 hPa 0,0 l/m 9,5 km/h (2 Bft) W-SW 0,00 h 0,000 mm 0,0 UV-I 0 W/m -11,3 C -12,2 C 14,5 km/h (3 Bft) 99,56 %
06.01.2017 21:00 -9,3 C 83 % 1039,6 hPa 0,0 l/m 9,3 km/h (2 Bft) SW 0,00 h 0,000 mm 0,0 UV-I 0 W/m -11,6 C -12,8 C 14,2 km/h (3 Bft) 95,87 %
06.01.2017 22:00 -9,7 C 84 % 1039,7 hPa 0,0 l/m 9,6 km/h (2 Bft) W-SW 0,00 h 0,000 mm 0,0 UV-I 0 W/m -11,9 C -13,6 C 14,4 km/h (3 Bft) 99,59 %
06.01.2017 23:00 -10,5 C 84 % 1039,7 hPa 0,0 l/m 7,9 km/h (2 Bft) W-SW 0,00 h 0,000 mm 0,0 UV-I 0 W/m -12,7 C -12,6 C 12,3 km/h (3 Bft) 98,30 %
07.01.2017 00:00 -11,3 C 85 % 1039,3 hPa 0,0 l/m 8,1 km/h (2 Bft) SW 0,00 h 0,000 mm 0,0 UV-I 0 W/m -13,2 C -13,6 C 12,5 km/h (3 Bft) 99,59 %
07.01.2017 01:00 -11,5 C 86 % 1039,1 hPa 0,0 l/m 7,7 km/h (2 Bft) W-SW 0,00 h 0,000 mm 0,0 UV-I 0 W/m -13,4 C -13,6 C 11,6 km/h (2 Bft) 98,23 %
07.01.2017 02:00 -12,0 C 87 % 1039,0 hPa 0,0 l/m 7,2 km/h (2 Bft) SW 0,00 h 0,000 mm 0,0 UV-I 0 W/m -13,7 C -13,3 C 10,6 km/h (2 Bft) 98,81 %
07.01.2017 03:00 -12,8 C 87 % 1038,8 hPa 0,0 l/m 1,9 km/h (1 Bft) SW 0,00 h 0,000 mm 0,0 UV-I 0 W/m -14,4 C -12,8 C 3,9 km/h (1 Bft) 99,09 %
07.01.2017 04:00 -13,4 C 89 % 1038,6 hPa 0,0 l/m 1,8 km/h (1 Bft) S-SW 0,00 h 0,000 mm 0,0 UV-I 0 W/m -14,8 C -13,4 C 3,5 km/h (1 Bft) 96,97 %
07.01.2017 05:00 -13,6 C 89 % 1038,6 hPa 0,0 l/m 1,5 km/h (1 Bft) S-SW 0,00 h 0,000 mm 0,0 UV-I 0 W/m -15,0 C -13,6 C 3,1 km/h (1 Bft) 99,41 %
07.01.2017 06:00 -13,9 C 89 % 1038,5 hPa 0,0 l/m 2,3 km/h (1 Bft) S-SW 0,00 h 0,000 mm 0,0 UV-I 0 W/m -15,3 C -13,9 C 4,1 km/h (1 Bft) 98,01 %
07.01.2017 07:00 -14,4 C 90 % 1038,2 hPa 0,0 l/m 2,8 km/h (1 Bft) S-SW 0,00 h 0,000 mm 0,0 UV-I 7 W/m -15,6 C -14,4 C 4,7 km/h (1 Bft) 99,36 %
07.01.2017 08:00 -14,5 C 90 % 1038,3 hPa 0,0 l/m 2,7 km/h (1 Bft) S-SW 0,77 h 0,000 mm 0,0 UV-I 68 W/m -15,8 C -14,5 C 4,8 km/h (1 Bft) 97,72 %
07.01.2017 09:00 -12,8 C 88 % 1038,2 hPa 0,0 l/m 4,4 km/h (1 Bft) S-SW 1,00 h 0,000 mm 0,0 UV-I 204 W/m -14,4 C -12,8 C 6,5 km/h (2 Bft) 98,64 %
07.01.2017 10:00 -10,7 C 85 % 1037,9 hPa 0,0 l/m 2,8 km/h (1 Bft) S-SW 1,00 h 0,051 mm 0,2 UV-I 270 W/m -12,8 C -10,7 C 5,0 km/h (1 Bft) 98,74 %
07.01.2017 11:00 -9,2 C 81 % 1037,1 hPa 0,0 l/m 1,6 km/h (1 Bft) NW 1,00 h 0,051 mm 0,5 UV-I 290 W/m -11,8 C -9,2 C 4,1 km/h (1 Bft) 98,22 %
07.01.2017 12:00 -8,4 C 78 % 1036,2 hPa 0,0 l/m 1,2 km/h (1 Bft) W-NW 0,73 h 0,076 mm 0,5 UV-I 263 W/m -11,5 C -8,4 C 3,3 km/h (1 Bft) 99,20 %
07.01.2017 13:00 -7,8 C 76 % 1035,2 hPa 0,0 l/m 2,0 km/h (1 Bft) W 0,63 h 0,051 mm 0,5 UV-I 203 W/m -11,3 C -7,8 C 4,4 km/h (1 Bft) 98,24 %
07.01.2017 14:00 -7,7 C 75 % 1034,9 hPa 0,0 l/m 2,0 km/h (1 Bft) W 0,00 h 0,050 mm 0,0 UV-I 106 W/m -11,3 C -7,7 C 4,7 km/h (1 Bft) 98,44 %
07.01.2017 15:00 -8,1 C 76 % 1034,5 hPa 0,0 l/m 4,3 km/h (1 Bft) W 0,00 h 0,026 mm 0,0 UV-I 46 W/m -11,5 C -8,5 C 8,1 km/h (2 Bft) 98,68 %
07.01.2017 16:00 -8,5 C 77 % 1034,3 hPa 0,0 l/m 4,5 km/h (1 Bft) W 0,03 h 0,025 mm 0,0 UV-I 10 W/m -11,7 C -8,6 C 7,9 km/h (2 Bft) 98,17 %
07.01.2017 17:00 -8,8 C 84 % 1033,9 hPa 0,0 l/m 1,9 km/h (1 Bft) W 0,00 h 0,000 mm 0,0 UV-I 0 W/m -11,1 C -8,8 C 4,0 km/h (1 Bft) 98,88 %
07.01.2017 18:00 -9,0 C 88 % 1033,3 hPa 0,0 l/m 2,0 km/h (1 Bft) NW 0,00 h 0,000 mm 0,0 UV-I 0 W/m -10,5 C -9,0 C 4,2 km/h (1 Bft) 98,91 %
07.01.2017 19:00 -9,0 C 86 % 1033,1 hPa 0,0 l/m 1,4 km/h (1 Bft) W-NW 0,00 h 0,000 mm 0,0 UV-I 0 W/m -11,0 C -9,0 C 3,7 km/h (1 Bft) 98,36 %
07.01.2017 20:00 -8,8 C 84 % 1032,9 hPa 0,0 l/m 4,1 km/h (1 Bft) SW 0,00 h 0,000 mm 0,0 UV-I 0 W/m -11,1 C -9,0 C 6,8 km/h (2 Bft) 98,81 %
07.01.2017 21:00 -9,1 C 90 % 1032,2 hPa 0,0 l/m 4,8 km/h (1 Bft) S-SW 0,00 h 0,000 mm 0,0 UV-I 0 W/m -10,5 C -9,1 C 7,2 km/h (2 Bft) 98,51 %
07.01.2017 22:00 -8,8 C 92 % 1031,3 hPa 0,0 l/m 3,9 km/h (1 Bft) W 0,00 h 0,000 mm 0,0 UV-I 0 W/m -9,9 C -8,8 C 6,2 km/h (2 Bft) 98,84 %
07.01.2017 23:00 -8,7 C 92 % 1030,8 hPa 0,0 l/m 2,1 km/h (1 Bft) W 0,00 h 0,000 mm 0,0 UV-I 0 W/m -9,7 C -8,7 C 4,1 km/h (1 Bft) 98,42 %
08.01.2017 00:00 -8,7 C 92 % 1029,8 hPa 0,0 l/m 1,4 km/h (1 Bft) W 0,00 h 0,000 mm 0,0 UV-I 0 W/m -9,7 C -8,7 C 3,3 km/h (1 Bft) 99,34 %
08.01.2017 01:00 -8,6 C 93 % 1029,0 hPa 0,0 l/m 0,5 km/h (0 Bft) W-NW 0,00 h 0,000 mm 0,0 UV-I 0 W/m -9,5 C -8,6 C 1,8 km/h (1 Bft) 97,79 %
08.01.2017 02:00 -8,4 C 93 % 1028,0 hPa 0,0 l/m 0,1 km/h (0 Bft) N 0,00 h 0,000 mm 0,0 UV-I 0 W/m -9,4 C -8,4 C 0,3 km/h (0 Bft) 99,63 %
08.01.2017 03:00 -8,3 C 93 % 1027,5 hPa 0,0 l/m 0,0 km/h (0 Bft) N 0,00 h 0,000 mm 0,0 UV-I 0 W/m -9,2 C -8,3 C 0,3 km/h (0 Bft) 97,93 %
08.01.2017 04:00 -8,1 C 93 % 1027,6 hPa 0,0 l/m 0,4 km/h (0 Bft) W-NW 0,00 h 0,000 mm 0,0 UV-I 0 W/m -9,0 C -8,1 C 1,1 km/h (1 Bft) 99,61 %
08.01.2017 05:00 -7,6 C 93 % 1027,4 hPa 0,0 l/m 2,4 km/h (1 Bft) S-SW 0,00 h 0,000 mm 0,0 UV-I 0 W/m -8,5 C -7,6 C 4,5 km/h (1 Bft) 97,87 %
08.01.2017 06:00 -6,0 C 94 % 1027,5 hPa 0,0 l/m 2,9 km/h (1 Bft) W 0,00 h 0,000 mm 0,0 UV-I 0 W/m -6,9 C -6,2 C 5,5 km/h (1 Bft) 99,37 %
08.01.2017 07:00 -6,1 C 94 % 1028,0 hPa 0,0 l/m 2,4 km/h (1 Bft) W 0,00 h 0,000 mm 0,0 UV-I 0 W/m -6,9 C -6,1 C 4,6 km/h (1 Bft) 98,43 %
08.01.2017 08:00 -6,0 C 94 % 1028,7 hPa 0,0 l/m 1,7 km/h (1 Bft) W-NW 0,00 h 0,000 mm 0,0 UV-I 8 W/m -6,8 C -6,0 C 3,9 km/h (1 Bft) 98,68 %
08.01.2017 09:00 -5,9 C 93 % 1029,1 hPa 0,0 l/m 1,8 km/h (1 Bft) W 0,00 h 0,000 mm 0,0 UV-I 19 W/m -6,8 C -5,9 C 3,8 km/h (1 Bft) 98,13 %
08.01.2017 10:00 -4,9 C 94 % 1029,2 hPa 0,0 l/m 3,8 km/h (1 Bft) W 0,00 h 0,000 mm 0,0 UV-I 39 W/m -5,8 C -4,9 C 6,6 km/h (2 Bft) 98,71 %
08.01.2017 11:00 -4,3 C 93 % 1029,3 hPa 0,0 l/m 1,0 km/h (0 Bft) NW 0,00 h 0,000 mm 0,0 UV-I 56 W/m -5,3 C -4,3 C 3,1 km/h (1 Bft) 98,70 %
08.01.2017 12:00 -4,3 C 93 % 1029,3 hPa 0,0 l/m 1,9 km/h (1 Bft) W-NW 0,00 h 0,025 mm 0,0 UV-I 47 W/m -5,3 C -4,3 C 4,5 km/h (1 Bft) 99,24 %
08.01.2017 13:00 -4,0 C 92 % 1029,3 hPa 0,0 l/m 2,3 km/h (1 Bft) W 0,00 h 0,026 mm 0,0 UV-I 42 W/m -5,0 C -4,0 C 4,1 km/h (1 Bft) 97,68 %
08.01.2017 14:00 -3,8 C 93 % 1029,5 hPa 0,0 l/m 2,6 km/h (1 Bft) W 0,00 h 0,025 mm 0,0 UV-I 32 W/m -4,7 C -3,8 C 4,7 km/h (1 Bft) 99,63 %
08.01.2017 15:00 -3,7 C 94 % 1029,9 hPa 0,0 l/m 3,9 km/h (1 Bft) W-SW 0,00 h 0,000 mm 0,0 UV-I 18 W/m -4,5 C -3,7 C 6,1 km/h (2 Bft) 98,43 %
08.01.2017 16:00 -3,7 C 95 % 1030,2 hPa 0,0 l/m 4,7 km/h (1 Bft) W-SW 0,00 h 0,000 mm 0,0 UV-I 6 W/m -4,4 C -3,7 C 7,2 km/h (2 Bft) 99,21 %
08.01.2017 17:00 -3,5 C 95 % 1030,5 hPa 0,0 l/m 4,6 km/h (1 Bft) W 0,00 h 0,000 mm 0,0 UV-I 0 W/m -4,2 C -3,5 C 7,0 km/h (2 Bft) 98,02 %
08.01.2017 18:00 -3,6 C 95 % 1030,6 hPa 0,0 l/m 2,5 km/h (1 Bft) W 0,00 h 0,000 mm 0,0 UV-I 0 W/m -4,2 C -3,6 C 4,8 km/h (1 Bft) 99,51 %
08.01.2017 19:00 -3,7 C 95 % 1030,5 hPa 0,0 l/m 4,5 km/h (1 Bft) W 0,00 h 0,000 mm 0,0 UV-I 0 W/m -4,4 C -3,8 C 7,4 km/h (2 Bft) 97,93 %
08.01.2017 20:00 -3,6 C 95 % 1030,6 hPa 0,0 l/m 1,6 km/h (1 Bft) W 0,00 h 0,000 mm 0,0 UV-I 0 W/m -4,3 C -3,6 C 3,2 km/h (1 Bft) 99,60 %
08.01.2017 21:00 -3,3 C 95 % 1030,8 hPa 0,0 l/m 2,5 km/h (1 Bft) W 0,00 h 0,000 mm 0,0 UV-I 0 W/m -3,9 C -3,3 C 4,4 km/h (1 Bft) 97,94 %
08.01.2017 22:00 -3,2 C 95 % 1031,1 hPa 0,0 l/m 2,5 km/h (1 Bft) W 0,00 h 0,000 mm 0,0 UV-I 0 W/m -3,8 C -3,2 C 4,0 km/h (1 Bft) 99,37 %
08.01.2017 23:00 -2,6 C 95 % 1030,9 hPa 0,0 l/m 7,6 km/h (2 Bft) W-SW 0,00 h 0,000 mm 0,0 UV-I 0 W/m -3,2 C -4,1 C 11,8 km/h (2 Bft) 97,53 %
Min-Datum _ 07.01.17 04.01.17 04.01.17 - 02.01.17 - - - - - 07.01.17 07.01.17 02.01.17 06.01.17
_ Min-Zeit 08:06 02:52 16:30 - 00:00 - - - - - 08:00 01:48 00:00 21:36
Minimum _ -14,9 C 67 % 1009,1 hPa - 0,0 km/h (0 Bft) - - - - - -16,1 C -17,9 C 0,0 km/h (0 Bft) 48,72 %
Max-Datum _ 04.01.17 02.01.17 06.01.17 04.01.17 04.01.17 - 05.01.17 06.01.17 06.01.17 07.01.17 04.01.17 03.01.17 04.01.17 02.01.17
_ Max-Zeit 06:48 14:22 22:46 03:00 03:14 - 10:03 12:00 11:24 11:12 14:40 13:40 03:14 00:00
Maximum _ 1,6 C 98 % 1039,9 hPa 0,2 l/m 39,7 km/h
W (6 Bft)
- 0,05 h 0,102 mm 0,7 UV-I 496 W/m 0,6 C -0,4 C 64,4 km/h
W (8 Bft)
100,00 %
Durchschnitt _ -4,4 C 88 % 1026,0 hPa #0,2 l/m 9,0 km/h (2 Bft) W-SW #16:23 h #2,693 mm 0,5 UV-I 87 W/m -6,1 C -7,9 C 14,2 km/h (3 Bft) 98,58 %